createdAt,value
2018-03-07T00:00:47.916Z,41.33
2018-03-07T00:03:16.291Z,42.70
2018-03-07T00:05:44.551Z,39.65
2018-03-07T00:08:12.979Z,39.40
2018-03-07T00:10:40.539Z,40.47
2018-03-07T00:13:08.078Z,40.80
2018-03-07T00:15:36.629Z,42.67
2018-03-07T00:18:04.174Z,39.57
2018-03-07T00:20:31.713Z,36.30
2018-03-07T00:23:00.194Z,40.75
2018-03-07T00:25:27.751Z,39.25
2018-03-07T00:27:55.946Z,42.57
2018-03-07T00:30:24.275Z,42.10
2018-03-07T00:32:51.832Z,40.55
2018-03-07T00:35:20.217Z,40.70
2018-03-07T00:37:48.510Z,42.95
2018-03-07T00:40:17.003Z,42.38
2018-03-07T00:42:45.258Z,41.07
2018-03-07T00:45:13.766Z,44.65
2018-03-07T00:47:42.211Z,44.15
2018-03-07T00:50:09.803Z,43.70
2018-03-07T00:52:37.392Z,43.30
2018-03-07T00:55:05.650Z,40.80
2018-03-07T00:57:34.098Z,40.73
2018-03-07T01:00:01.807Z,43.07
2018-03-07T01:02:30.298Z,46.80
2018-03-07T01:04:57.847Z,44.77
2018-03-07T01:07:25.430Z,42.37
2018-03-07T01:09:52.971Z,45.53
2018-03-07T01:12:21.483Z,46.13
2018-03-07T01:14:49.033Z,40.70
2018-03-07T01:17:16.620Z,44.33
2018-03-07T01:19:45.004Z,43.10
2018-03-07T01:22:13.343Z,45.33
2018-03-07T01:24:41.615Z,43.03
2018-03-07T01:27:09.945Z,43.30
2018-03-07T01:29:38.419Z,44.03
2018-03-07T01:32:06.704Z,45.07
2018-03-07T01:34:35.218Z,43.87
2018-03-07T01:37:02.773Z,43.13
2018-03-07T01:39:31.298Z,47.13
2018-03-07T01:41:58.891Z,45.65
2018-03-07T01:44:26.499Z,44.25
2018-03-07T01:46:54.109Z,45.90
2018-03-07T01:49:22.463Z,47.88
2018-03-07T01:52:01.757Z,46.90
2018-03-07T01:54:30.137Z,45.20
2018-03-07T01:56:57.959Z,45.53
2018-03-07T01:59:26.324Z,46.17
2018-03-07T02:01:53.882Z,46.00
2018-03-07T02:04:21.438Z,43.13
2018-03-07T02:06:48.990Z,46.90
2018-03-07T02:09:16.546Z,46.92
2018-03-07T02:11:44.089Z,49.40
2018-03-07T02:14:11.653Z,50.93
2018-03-07T02:16:39.209Z,48.07
2018-03-07T02:19:06.760Z,51.47
2018-03-07T02:21:34.306Z,49.70
2018-03-07T02:24:02.765Z,44.97
2018-03-07T02:26:30.307Z,43.87
2018-03-07T02:28:57.843Z,43.33
2018-03-07T02:31:25.394Z,46.50
2018-03-07T02:33:52.939Z,45.40
2018-03-07T02:36:32.499Z,47.47
2018-03-07T02:39:00.092Z,49.97
2018-03-07T02:41:28.494Z,50.73
2018-03-07T02:43:56.051Z,47.42
2018-03-07T02:46:23.611Z,46.72
2018-03-07T02:48:51.974Z,46.47
2018-03-07T02:51:20.342Z,44.70
2018-03-07T02:53:47.886Z,42.40
2018-03-07T02:56:15.444Z,46.63
2018-03-07T02:58:43.058Z,45.80
2018-03-07T03:01:10.618Z,43.93
2018-03-07T03:03:38.201Z,43.93
2018-03-07T03:06:05.750Z,42.87
2018-03-07T03:08:33.311Z,48.78
2018-03-07T03:11:01.779Z,49.47
2018-03-07T03:13:29.346Z,47.72
2018-03-07T03:15:56.895Z,46.37
2018-03-07T03:18:25.383Z,42.90
2018-03-07T03:20:52.942Z,43.90
2018-03-07T03:23:21.342Z,41.50
2018-03-07T03:25:48.889Z,43.03
2018-03-07T03:28:16.474Z,40.00
2018-03-07T03:30:44.073Z,45.23
2018-03-07T03:33:12.539Z,43.00
2018-03-07T03:35:40.984Z,44.70
2018-03-07T03:38:09.328Z,46.97
2018-03-07T03:40:36.903Z,45.53
2018-03-07T03:43:04.458Z,49.83
2018-03-07T03:45:32.014Z,48.92
2018-03-07T03:48:00.554Z,47.67
2018-03-07T03:50:28.115Z,48.15
2018-03-07T03:52:55.719Z,48.95
2018-03-07T03:55:24.170Z,53.33
2018-03-07T03:57:52.439Z,50.10
2018-03-07T04:00:19.986Z,53.63
2018-03-07T04:02:47.574Z,51.92
2018-03-07T04:05:15.171Z,52.50
2018-03-07T04:07:43.658Z,49.63
2018-03-07T04:10:11.250Z,53.35
2018-03-07T04:12:38.796Z,48.50
2018-03-07T04:15:07.293Z,47.58
2018-03-07T04:17:34.838Z,47.50
2018-03-07T04:20:03.135Z,49.00
2018-03-07T04:22:30.713Z,50.70
2018-03-07T04:24:58.273Z,51.28
2018-03-07T04:27:25.867Z,51.78
2018-03-07T04:29:53.426Z,51.78
2018-03-07T04:32:20.979Z,52.80
2018-03-07T04:34:48.526Z,52.90
2018-03-07T04:37:17.026Z,54.95
2018-03-07T04:39:44.621Z,54.08
2018-03-07T04:42:12.974Z,58.13
2018-03-07T04:44:40.522Z,55.90
2018-03-07T04:47:08.799Z,54.40
2018-03-07T04:49:37.178Z,54.78
2018-03-07T04:52:04.722Z,54.33
2018-03-07T04:54:32.346Z,52.57
2018-03-07T04:57:00.603Z,55.60
2018-03-07T04:59:29.034Z,58.95
2018-03-07T05:01:56.599Z,56.75
2018-03-07T05:04:25.091Z,57.10
2018-03-07T05:06:53.451Z,54.90
2018-03-07T05:09:21.047Z,58.60
2018-03-07T05:11:49.379Z,59.33
2018-03-07T05:14:17.663Z,58.10
2018-03-07T05:16:45.220Z,54.97
2018-03-07T05:19:12.782Z,54.95
2018-03-07T05:21:41.154Z,53.78
2018-03-07T05:24:08.714Z,58.05
2018-03-07T05:26:36.346Z,61.15
2018-03-07T05:29:03.906Z,59.13
2018-03-07T05:31:31.464Z,67.17
2018-03-07T05:33:59.083Z,58.63
2018-03-07T05:36:26.650Z,55.72
2018-03-07T05:38:55.123Z,57.67
2018-03-07T05:41:22.780Z,59.60
2018-03-07T05:43:51.169Z,56.47
2018-03-07T05:46:18.739Z,56.33
2018-03-07T05:48:47.434Z,53.22
2018-03-07T05:51:16.603Z,51.30
2018-03-07T05:53:45.351Z,51.47
2018-03-07T05:56:14.205Z,54.70
2018-03-07T05:58:41.815Z,56.00
2018-03-07T06:01:09.987Z,50.47
2018-03-07T06:03:37.569Z,50.75
2018-03-07T06:06:05.199Z,55.03
2018-03-07T06:08:32.760Z,52.42
2018-03-07T06:11:00.311Z,54.23
2018-03-07T06:13:27.876Z,54.95
2018-03-07T06:15:57.256Z,58.75
2018-03-07T06:18:24.851Z,53.35
2018-03-07T06:20:52.402Z,59.87
2018-03-07T06:23:20.003Z,58.47
2018-03-07T06:25:47.578Z,55.55
2018-03-07T06:28:15.142Z,56.80
2018-03-07T06:30:42.743Z,58.42
2018-03-07T06:33:10.292Z,55.50
2018-03-07T06:35:37.836Z,48.73
2018-03-07T06:38:05.389Z,55.70
2018-03-07T06:40:33.015Z,51.43
2018-03-07T06:43:00.569Z,51.53
2018-03-07T06:45:28.119Z,47.60
2018-03-07T06:47:55.665Z,49.80
2018-03-07T06:50:23.215Z,46.17
2018-03-07T06:52:50.759Z,46.93
2018-03-07T06:55:18.311Z,54.47
2018-03-07T06:57:46.774Z,54.13
2018-03-07T07:00:14.356Z,57.50
2018-03-07T07:02:42.738Z,67.30
2018-03-07T07:05:10.288Z,68.33
2018-03-07T07:07:37.843Z,55.40
2018-03-07T07:10:05.391Z,59.23
2018-03-07T07:12:32.938Z,54.87
2018-03-07T07:15:00.694Z,48.50
2018-03-07T07:17:28.248Z,48.40
2018-03-07T07:19:55.798Z,51.37
2018-03-07T07:22:23.347Z,50.63
2018-03-07T07:24:50.898Z,51.07
2018-03-07T07:27:18.447Z,52.30
2018-03-07T07:29:46.007Z,51.43
2018-03-07T07:32:13.557Z,54.30
2018-03-07T07:34:41.130Z,52.77
2018-03-07T07:37:09.378Z,49.30
2018-03-07T07:39:36.923Z,51.37
2018-03-07T07:42:04.479Z,50.93
2018-03-07T07:44:32.034Z,54.90
2018-03-07T07:46:59.586Z,52.67
2018-03-07T07:49:27.138Z,51.17
2018-03-07T07:51:54.687Z,54.23
2018-03-07T07:54:22.235Z,53.27
2018-03-07T07:56:49.782Z,51.60
2018-03-07T07:59:17.331Z,51.37
2018-03-07T08:01:44.885Z,48.20
2018-03-07T08:04:12.440Z,49.33
2018-03-07T08:06:39.991Z,51.70
2018-03-07T08:09:07.545Z,47.80
2018-03-07T08:11:35.092Z,51.20
2018-03-07T08:14:02.643Z,50.00
2018-03-07T08:16:30.186Z,56.40
2018-03-07T08:18:57.735Z,52.60
2018-03-07T08:21:25.290Z,53.63
2018-03-07T08:23:52.839Z,50.13
2018-03-07T08:26:20.388Z,51.90
2018-03-07T08:28:47.939Z,51.53
2018-03-07T08:31:15.732Z,53.20
2018-03-07T08:33:43.302Z,51.70
2018-03-07T08:36:10.851Z,54.13
2018-03-07T08:38:38.402Z,53.77
2018-03-07T08:41:05.950Z,51.90
2018-03-07T08:43:33.496Z,51.33
2018-03-07T08:46:01.081Z,52.07
2018-03-07T08:48:28.626Z,47.27
2018-03-07T08:50:56.175Z,48.37
2018-03-07T08:53:23.728Z,46.90
2018-03-07T08:55:51.287Z,46.10
2018-03-07T08:58:18.840Z,47.70
2018-03-07T09:00:46.394Z,50.33
2018-03-07T09:03:13.966Z,47.53
2018-03-07T09:05:41.522Z,47.10
2018-03-07T09:08:09.085Z,46.20
2018-03-07T09:10:36.634Z,44.83
2018-03-07T09:13:04.188Z,48.80
2018-03-07T09:15:31.771Z,46.10
2018-03-07T09:17:59.382Z,47.17
2018-03-07T09:20:26.933Z,45.93
2018-03-07T09:22:54.481Z,43.53
2018-03-07T09:25:22.053Z,49.17
2018-03-07T09:27:50.439Z,44.77
2018-03-07T09:30:17.992Z,46.30
2018-03-07T09:32:45.538Z,45.70
2018-03-07T09:35:13.083Z,45.07
2018-03-07T09:37:40.634Z,46.00
2018-03-07T09:40:08.185Z,45.50
2018-03-07T09:42:36.626Z,44.83
2018-03-07T09:45:04.176Z,43.70
2018-03-07T09:47:31.738Z,41.97
2018-03-07T09:49:59.285Z,43.30
2018-03-07T09:52:26.830Z,41.43
2018-03-07T09:54:54.401Z,39.63
2018-03-07T09:57:21.962Z,43.90
2018-03-07T09:59:49.506Z,42.20
2018-03-07T10:02:17.051Z,39.50
2018-03-07T10:04:45.537Z,41.87
2018-03-07T10:07:13.083Z,38.03
2018-03-07T10:09:40.675Z,35.60
2018-03-07T10:12:08.223Z,35.57
2018-03-07T10:14:35.821Z,33.47
2018-03-07T10:17:03.346Z,34.47
2018-03-07T10:19:30.893Z,36.23
2018-03-07T10:21:58.436Z,33.67
2018-03-07T10:24:25.982Z,32.97
2018-03-07T10:26:53.530Z,31.20
2018-03-07T10:29:21.075Z,31.47
2018-03-07T10:31:48.622Z,30.10
2018-03-07T10:34:16.984Z,31.30
2018-03-07T10:36:45.390Z,31.83
2018-03-07T10:39:12.946Z,31.33
2018-03-07T10:41:40.495Z,29.60
2018-03-07T10:44:08.830Z,26.47
2018-03-07T10:46:37.209Z,26.70
2018-03-07T10:49:05.530Z,30.73
2018-03-07T10:51:33.770Z,29.07
2018-03-07T10:54:01.362Z,27.30
2018-03-07T10:56:28.914Z,26.20
2018-03-07T10:58:56.463Z,26.90
2018-03-07T11:01:24.059Z,23.63
2018-03-07T11:03:51.634Z,26.43
2018-03-07T11:06:19.175Z,25.90
2018-03-07T11:08:46.722Z,25.63
2018-03-07T11:11:14.272Z,26.60
2018-03-07T11:13:41.819Z,26.60
2018-03-07T11:16:09.362Z,25.40
2018-03-07T11:18:37.825Z,26.80
2018-03-07T11:21:05.374Z,26.70
2018-03-07T11:23:32.922Z,26.70
2018-03-07T11:26:00.466Z,25.60
2018-03-07T11:28:28.013Z,26.40
2018-03-07T11:30:56.454Z,25.20
2018-03-07T11:33:23.999Z,25.03
2018-03-07T11:35:51.549Z,29.00
2018-03-07T11:38:19.090Z,26.10
2018-03-07T11:40:46.632Z,26.70
2018-03-07T11:43:14.176Z,27.03
2018-03-07T11:45:41.721Z,27.20
2018-03-07T11:48:09.275Z,25.00
2018-03-07T11:50:36.819Z,25.23
2018-03-07T11:53:04.371Z,26.73
2018-03-07T11:55:31.915Z,29.03
2018-03-07T11:57:59.491Z,27.40
2018-03-07T12:00:27.034Z,25.57
2018-03-07T12:02:54.578Z,28.37
2018-03-07T12:05:22.127Z,28.40
2018-03-07T12:07:49.683Z,28.80
2018-03-07T12:10:17.494Z,27.00
2018-03-07T12:12:45.035Z,26.80
2018-03-07T12:15:12.591Z,27.90
2018-03-07T12:17:40.196Z,26.40
2018-03-07T12:20:07.719Z,26.23
2018-03-07T12:22:35.269Z,28.03
2018-03-07T12:25:02.828Z,28.00
2018-03-07T12:27:30.382Z,25.13
2018-03-07T12:29:57.928Z,30.67
2018-03-07T12:32:25.501Z,28.67
2018-03-07T12:34:53.099Z,30.03
2018-03-07T12:37:21.573Z,28.00
2018-03-07T12:39:49.123Z,27.70
2018-03-07T12:42:16.669Z,30.20
2018-03-07T12:44:44.214Z,26.27
2018-03-07T12:47:12.007Z,28.03
2018-03-07T12:49:39.557Z,26.43
2018-03-07T12:52:07.099Z,29.33
2018-03-07T12:54:34.655Z,27.77
2018-03-07T12:57:02.194Z,28.80
2018-03-07T12:59:29.742Z,26.63
2018-03-07T13:01:57.391Z,28.77
2018-03-07T13:04:24.936Z,27.17
2018-03-07T13:06:52.488Z,27.70
2018-03-07T13:09:20.844Z,25.60
2018-03-07T13:11:49.294Z,27.47
2018-03-07T13:14:16.896Z,28.80
2018-03-07T13:16:44.438Z,25.30
2018-03-07T13:19:12.022Z,26.57
2018-03-07T13:21:39.567Z,26.70
2018-03-07T13:24:07.118Z,29.40
2018-03-07T13:26:34.659Z,27.20
2018-03-07T13:29:02.242Z,27.63
2018-03-07T13:31:29.790Z,28.63
2018-03-07T13:33:59.239Z,30.27
2018-03-07T13:36:26.781Z,30.47
2018-03-07T13:38:54.567Z,31.30
2018-03-07T13:41:22.143Z,27.27
2018-03-07T13:43:50.687Z,28.47
2018-03-07T13:46:18.271Z,28.33
2018-03-07T13:48:45.853Z,31.53
2018-03-07T13:51:13.403Z,27.97
2018-03-07T13:53:41.782Z,26.43
2018-03-07T13:56:10.242Z,28.80
2018-03-07T13:58:37.787Z,26.13
2018-03-07T14:01:06.028Z,27.90
2018-03-07T14:03:33.581Z,29.70
2018-03-07T14:06:01.127Z,28.10
2018-03-07T14:08:28.671Z,26.80
2018-03-07T14:10:56.255Z,26.70
2018-03-07T14:13:23.848Z,27.03
2018-03-07T14:15:51.400Z,27.47
2018-03-07T14:18:18.946Z,26.67
2018-03-07T14:20:46.494Z,25.97
2018-03-07T14:23:14.086Z,25.87
2018-03-07T14:25:41.640Z,26.43
2018-03-07T14:28:09.221Z,27.37
2018-03-07T14:30:37.562Z,25.10
2018-03-07T14:33:05.159Z,24.60
2018-03-07T14:35:32.708Z,25.20
2018-03-07T14:38:00.247Z,24.10
2018-03-07T14:40:27.791Z,25.60
2018-03-07T14:42:55.339Z,26.03
2018-03-07T14:45:22.946Z,26.93
2018-03-07T14:47:50.488Z,25.23
2018-03-07T14:50:18.032Z,22.43
2018-03-07T14:52:46.499Z,26.30
2018-03-07T14:55:14.846Z,25.43
2018-03-07T14:57:43.168Z,24.63
2018-03-07T15:00:10.716Z,24.87
2018-03-07T15:02:38.309Z,26.73
2018-03-07T15:05:05.863Z,26.00
2018-03-07T15:07:33.416Z,24.57
2018-03-07T15:10:00.961Z,24.53
2018-03-07T15:12:28.512Z,24.30
2018-03-07T15:14:56.759Z,24.90
2018-03-07T15:17:24.299Z,25.10
2018-03-07T15:19:51.853Z,24.33
2018-03-07T15:22:19.403Z,26.83
2018-03-07T15:24:46.945Z,26.37
2018-03-07T15:27:14.487Z,26.13
2018-03-07T15:29:42.031Z,24.10
2018-03-07T15:32:10.304Z,24.00
2018-03-07T15:34:37.861Z,23.97
2018-03-07T15:37:05.398Z,25.87
2018-03-07T15:39:32.985Z,27.40
2018-03-07T15:42:00.522Z,25.30
2018-03-07T15:44:28.066Z,27.73
2018-03-07T15:46:55.614Z,25.93
2018-03-07T15:49:23.239Z,23.80
2018-03-07T15:51:50.830Z,25.40
2018-03-07T15:54:18.354Z,24.47
2018-03-07T15:56:46.802Z,25.70
2018-03-07T15:59:15.166Z,26.93
2018-03-07T16:01:42.766Z,26.40
2018-03-07T16:04:11.106Z,28.87
2018-03-07T16:06:38.655Z,27.17
2018-03-07T16:09:06.200Z,27.50
2018-03-07T16:11:33.749Z,29.77
2018-03-07T16:14:01.310Z,27.67
2018-03-07T16:16:28.859Z,27.83
2018-03-07T16:18:56.412Z,26.63
2018-03-07T16:21:23.990Z,26.63
2018-03-07T16:23:51.534Z,28.97
2018-03-07T16:26:19.119Z,31.17
2018-03-07T16:28:46.684Z,30.70
2018-03-07T16:31:14.271Z,30.57
2018-03-07T16:33:42.758Z,31.10
2018-03-07T16:36:10.352Z,31.10
2018-03-07T16:38:37.893Z,32.87
2018-03-07T16:41:06.361Z,31.70
2018-03-07T16:43:33.951Z,32.33
2018-03-07T16:46:01.506Z,35.90
2018-03-07T16:48:29.054Z,33.27
2018-03-07T16:50:56.611Z,34.20
2018-03-07T16:53:24.164Z,32.13
2018-03-07T16:55:51.716Z,32.33
2018-03-07T16:58:19.271Z,31.47
2018-03-07T17:00:47.562Z,34.37
2018-03-07T17:03:15.118Z,32.67
2018-03-07T17:05:42.671Z,35.80
2018-03-07T17:08:10.394Z,34.10
2018-03-07T17:10:38.029Z,33.60
2018-03-07T17:13:06.614Z,35.87
2018-03-07T17:15:35.272Z,35.27
2018-03-07T17:18:02.904Z,33.83
2018-03-07T17:20:30.607Z,35.25
2018-03-07T17:22:58.227Z,35.40
2018-03-07T17:25:25.843Z,35.03
2018-03-07T17:27:53.937Z,33.73
2018-03-07T17:30:21.554Z,39.90
2018-03-07T17:33:00.808Z,37.27
2018-03-07T17:35:28.391Z,37.60
2018-03-07T17:37:57.064Z,35.70
2018-03-07T17:40:24.698Z,34.47
2018-03-07T17:42:52.384Z,35.10
2018-03-07T17:45:20.172Z,46.30
2018-03-07T17:47:47.849Z,35.57
2018-03-07T17:50:15.551Z,40.40
2018-03-07T17:52:43.399Z,41.83
2018-03-07T17:55:11.015Z,46.57
2018-03-07T17:57:38.688Z,40.00
2018-03-07T18:00:06.384Z,42.37
2018-03-07T18:02:34.058Z,38.33
2018-03-07T18:05:01.724Z,38.27
2018-03-07T18:07:29.428Z,36.20
2018-03-07T18:09:57.039Z,37.27
2018-03-07T18:12:24.727Z,39.30
2018-03-07T18:14:52.419Z,41.13
2018-03-07T18:17:20.131Z,43.47
2018-03-07T18:19:47.917Z,41.63
2018-03-07T18:22:15.547Z,40.20
2018-03-07T18:24:43.199Z,42.37
2018-03-07T18:27:11.799Z,42.97
2018-03-07T18:29:39.444Z,40.10
2018-03-07T18:32:07.125Z,40.20
2018-03-07T18:34:35.693Z,40.23
2018-03-07T18:37:03.334Z,42.87
2018-03-07T18:39:31.987Z,42.00
2018-03-07T18:41:59.614Z,38.77
2018-03-07T18:44:27.257Z,40.10
2018-03-07T18:46:54.939Z,40.77
2018-03-07T18:49:22.523Z,42.53
2018-03-07T18:51:50.212Z,43.30
2018-03-07T18:54:17.989Z,42.07
2018-03-07T18:56:45.866Z,39.17
2018-03-07T18:59:14.890Z,42.37
2018-03-07T19:01:42.702Z,41.97
2018-03-07T19:04:11.291Z,43.13
2018-03-07T19:06:38.995Z,41.97
2018-03-07T19:09:06.647Z,40.90
2018-03-07T19:11:36.668Z,42.13
2018-03-07T19:14:04.266Z,40.47
2018-03-07T19:16:31.927Z,39.10
2018-03-07T19:18:59.472Z,39.97
2018-03-07T19:21:28.679Z,38.17
2018-03-07T19:23:56.294Z,39.70
2018-03-07T19:26:23.893Z,39.97
2018-03-07T19:28:51.496Z,41.30
2018-03-07T19:31:20.527Z,43.40
2018-03-07T19:33:48.121Z,44.50
2018-03-07T19:36:16.440Z,45.10
2018-03-07T19:38:45.311Z,42.63
2018-03-07T19:41:12.920Z,42.63
2018-03-07T19:43:41.919Z,45.07
2018-03-07T19:46:13.757Z,41.97
2018-03-07T19:48:42.722Z,41.57
2018-03-07T19:51:11.767Z,42.57
2018-03-07T19:53:40.172Z,45.03
2018-03-07T19:56:09.026Z,42.30
2018-03-07T19:58:38.171Z,44.60
2018-03-07T20:01:06.446Z,43.40
2018-03-07T20:03:35.574Z,42.20
2018-03-07T20:06:04.214Z,44.83
2018-03-07T20:08:33.910Z,43.03
2018-03-07T20:11:02.284Z,43.37
2018-03-07T20:13:29.883Z,41.97
2018-03-07T20:15:57.481Z,44.57
2018-03-07T20:18:26.628Z,41.07
2018-03-07T20:20:55.116Z,42.07
2018-03-07T20:23:23.534Z,44.33
2018-03-07T20:25:53.681Z,40.40
2018-03-07T20:28:22.959Z,43.70
2018-03-07T20:30:52.289Z,42.53
2018-03-07T20:33:21.495Z,44.70
2018-03-07T20:35:50.652Z,43.97
2018-03-07T20:38:21.416Z,43.10
2018-03-07T20:40:49.091Z,47.37
2018-03-07T20:43:16.691Z,47.50
2018-03-07T20:45:45.089Z,46.10
2018-03-07T20:48:12.742Z,44.00
2018-03-07T20:50:43.482Z,46.40
2018-03-07T20:53:11.851Z,47.63
2018-03-07T20:55:40.259Z,43.47
2018-03-07T20:58:08.909Z,47.10
2018-03-07T21:00:36.569Z,50.60
2018-03-07T21:03:04.329Z,48.73
2018-03-07T21:05:31.964Z,48.90
2018-03-07T21:07:59.652Z,49.60
2018-03-07T21:10:28.242Z,47.23
2018-03-07T21:12:56.922Z,45.70
2018-03-07T21:15:24.638Z,49.63
2018-03-07T21:17:52.322Z,52.90
2018-03-07T21:20:19.927Z,53.70
2018-03-07T21:22:47.837Z,54.83
2018-03-07T21:25:16.362Z,53.27
2018-03-07T21:27:45.431Z,50.80
2018-03-07T21:30:13.101Z,49.40
2018-03-07T21:32:40.869Z,47.37
2018-03-07T21:35:08.474Z,49.40
2018-03-07T21:37:54.271Z,49.93
2018-03-07T21:40:24.219Z,51.77
2018-03-07T21:42:52.428Z,47.70
2018-03-07T21:45:23.354Z,48.90
2018-03-07T21:47:51.133Z,53.00
2018-03-07T21:50:18.997Z,50.40
2018-03-07T21:52:47.784Z,50.50
2018-03-07T21:55:15.459Z,51.90
2018-03-07T21:57:43.629Z,48.00
2018-03-07T22:00:11.292Z,48.83
2018-03-07T22:02:38.981Z,50.87
2018-03-07T22:05:06.576Z,45.97
2018-03-07T22:07:34.178Z,51.67
2018-03-07T22:10:01.843Z,49.30
2018-03-07T22:12:29.707Z,52.80
2018-03-07T22:14:57.580Z,54.60
2018-03-07T22:17:25.266Z,57.30
2018-03-07T22:19:53.981Z,57.27
2018-03-07T22:22:22.650Z,56.30
2018-03-07T22:24:50.298Z,54.10
2018-03-07T22:27:17.922Z,57.60
2018-03-07T22:29:45.608Z,56.40
2018-03-07T22:32:13.213Z,59.60
2018-03-07T22:34:40.902Z,57.63
2018-03-07T22:37:08.588Z,54.13
2018-03-07T22:39:36.274Z,50.50
2018-03-07T22:42:03.875Z,60.00
2018-03-07T22:44:31.477Z,58.10
2018-03-07T22:46:59.075Z,64.30
2018-03-07T22:49:26.678Z,53.23
2018-03-07T22:51:54.286Z,60.87
2018-03-07T22:54:22.000Z,55.43
2018-03-07T22:56:49.663Z,60.42
2018-03-07T22:59:17.351Z,50.50
2018-03-07T23:01:44.946Z,55.50
2018-03-07T23:04:12.548Z,53.37
2018-03-07T23:06:40.148Z,55.90
2018-03-07T23:09:07.747Z,53.70
2018-03-07T23:11:35.354Z,58.13
2018-03-07T23:14:03.757Z,57.73
2018-03-07T23:16:31.355Z,63.38
2018-03-07T23:18:59.062Z,65.72
2018-03-07T23:21:26.739Z,74.28
2018-03-07T23:23:54.338Z,60.30
2018-03-07T23:26:21.942Z,60.17
2018-03-07T23:28:49.536Z,61.53
2018-03-07T23:31:18.586Z,68.40
2018-03-07T23:36:20.887Z,75.57
2018-03-07T23:38:49.578Z,71.60
2018-03-07T23:41:17.255Z,70.75
2018-03-07T23:43:44.855Z,62.83
2018-03-07T23:46:13.284Z,67.03
2018-03-07T23:48:41.050Z,62.90
2018-03-07T23:51:08.917Z,71.70
2018-03-07T23:53:36.515Z,65.37
2018-03-07T23:56:04.121Z,69.13
2018-03-07T23:58:31.715Z,68.43
